createdAt,value
2019-01-15T00:00:38.565Z,34.33
2019-01-15T00:03:07.811Z,33.93
2019-01-15T00:05:37.032Z,34.13
2019-01-15T00:08:06.214Z,33.87
2019-01-15T00:10:35.717Z,37.10
2019-01-15T00:13:05.289Z,36.07
2019-01-15T00:15:34.517Z,34.63
2019-01-15T00:18:04.265Z,44.13
2019-01-15T00:20:33.420Z,34.40
2019-01-15T00:23:02.600Z,31.10
2019-01-15T00:25:32.099Z,36.73
2019-01-15T00:28:01.236Z,31.27
2019-01-15T00:30:30.571Z,35.03
2019-01-15T00:32:59.794Z,30.00
2019-01-15T00:35:29.049Z,42.97
2019-01-15T00:37:58.201Z,31.10
2019-01-15T00:40:27.777Z,32.13
2019-01-15T00:42:56.916Z,29.50
2019-01-15T00:45:26.080Z,32.97
2019-01-15T00:47:55.672Z,33.87
2019-01-15T00:50:24.913Z,36.83
2019-01-15T00:52:54.489Z,36.57
2019-01-15T00:55:23.713Z,34.23
2019-01-15T00:57:52.987Z,28.57
2019-01-15T01:00:23.074Z,24.87
2019-01-15T01:02:52.360Z,31.57
2019-01-15T01:05:21.648Z,28.13
2019-01-15T01:07:50.896Z,34.47
2019-01-15T01:10:20.143Z,33.37
2019-01-15T01:12:49.632Z,29.10
2019-01-15T01:15:19.248Z,36.50
2019-01-15T01:17:49.154Z,29.67
2019-01-15T01:20:23.084Z,31.77
2019-01-15T01:22:52.772Z,26.17
2019-01-15T01:25:22.274Z,36.73
2019-01-15T01:27:51.435Z,28.47
2019-01-15T01:30:22.484Z,29.30
2019-01-15T01:32:52.142Z,33.53
2019-01-15T01:35:21.346Z,29.13
2019-01-15T01:37:50.618Z,26.97
2019-01-15T01:40:20.745Z,35.93
2019-01-15T01:42:49.994Z,35.17
2019-01-15T01:45:19.634Z,29.27
2019-01-15T01:47:49.178Z,30.00
2019-01-15T01:50:18.426Z,34.40
2019-01-15T01:52:47.568Z,27.17
2019-01-15T01:55:17.381Z,34.27
2019-01-15T01:57:46.589Z,32.13
2019-01-15T02:00:22.634Z,30.93
2019-01-15T02:02:52.209Z,31.00
2019-01-15T02:05:21.447Z,33.97
2019-01-15T02:07:50.597Z,39.53
2019-01-15T02:10:20.873Z,38.17
2019-01-15T02:12:50.506Z,33.10
2019-01-15T02:15:22.085Z,33.80
2019-01-15T02:17:51.351Z,32.87
2019-01-15T02:20:21.139Z,34.00
2019-01-15T02:22:50.771Z,27.53
2019-01-15T02:25:19.965Z,32.53
2019-01-15T02:27:51.310Z,36.93
2019-01-15T02:30:23.102Z,32.37
2019-01-15T02:32:52.279Z,35.10
2019-01-15T02:35:21.718Z,36.73
2019-01-15T02:37:50.880Z,38.80
2019-01-15T02:40:20.033Z,31.20
2019-01-15T02:42:49.182Z,34.30
2019-01-15T02:45:20.139Z,36.87
2019-01-15T02:47:49.685Z,30.37
2019-01-15T02:50:19.945Z,35.87
2019-01-15T02:52:49.439Z,36.13
2019-01-15T02:55:18.654Z,25.60
2019-01-15T02:57:47.821Z,27.07
2019-01-15T03:00:36.148Z,26.57
2019-01-15T03:03:05.656Z,30.93
2019-01-15T03:05:34.792Z,35.23
2019-01-15T03:08:04.080Z,30.07
2019-01-15T03:10:33.241Z,39.13
2019-01-15T03:13:02.841Z,27.60
2019-01-15T03:15:32.392Z,33.47
2019-01-15T03:18:01.552Z,26.33
2019-01-15T03:20:30.760Z,27.27
2019-01-15T03:22:59.984Z,25.00
2019-01-15T03:25:29.578Z,25.27
2019-01-15T03:27:59.060Z,25.40
2019-01-15T03:30:28.223Z,24.87
2019-01-15T03:32:57.504Z,23.17
2019-01-15T03:35:27.022Z,31.13
2019-01-15T03:37:56.505Z,27.63
2019-01-15T03:40:26.962Z,27.10
2019-01-15T03:43:03.620Z,27.33
2019-01-15T03:45:27.905Z,29.10
2019-01-15T03:47:57.041Z,21.90
2019-01-15T03:50:26.223Z,26.13
2019-01-15T03:52:55.359Z,24.67
2019-01-15T03:55:24.614Z,33.07
2019-01-15T03:57:53.768Z,22.53
2019-01-15T04:00:24.668Z,32.97
2019-01-15T04:02:54.382Z,22.47
2019-01-15T04:05:24.002Z,25.73
2019-01-15T04:07:58.088Z,22.83
2019-01-15T04:10:27.651Z,23.60
2019-01-15T04:12:56.894Z,24.37
2019-01-15T04:15:26.061Z,30.00
2019-01-15T04:17:55.852Z,29.90
2019-01-15T04:20:25.169Z,22.63
2019-01-15T04:22:54.881Z,23.53
2019-01-15T04:25:24.028Z,26.77
2019-01-15T04:27:53.272Z,22.83
2019-01-15T04:30:23.743Z,24.23
2019-01-15T04:32:53.089Z,25.63
2019-01-15T04:35:22.224Z,22.17
2019-01-15T04:37:51.481Z,25.17
2019-01-15T04:40:21.905Z,19.90
2019-01-15T04:42:51.489Z,23.80
2019-01-15T04:45:22.574Z,21.77
2019-01-15T04:47:51.717Z,27.00
2019-01-15T04:50:21.291Z,30.67
2019-01-15T04:53:09.308Z,26.90
2019-01-15T04:55:39.215Z,23.43
2019-01-15T04:58:08.338Z,24.47
2019-01-15T05:00:37.595Z,26.83
2019-01-15T05:03:09.149Z,26.17
2019-01-15T05:05:38.403Z,23.40
2019-01-15T05:08:07.959Z,21.10
2019-01-15T05:10:38.085Z,22.17
2019-01-15T05:13:07.507Z,18.30
2019-01-15T05:15:37.083Z,23.63
2019-01-15T05:18:06.213Z,19.37
2019-01-15T05:20:35.411Z,23.07
2019-01-15T05:23:05.577Z,21.80
2019-01-15T05:25:34.782Z,27.03
2019-01-15T05:28:04.544Z,27.67
2019-01-15T05:30:34.122Z,18.97
2019-01-15T05:33:03.299Z,19.03
2019-01-15T05:35:32.452Z,21.00
2019-01-15T05:38:01.681Z,23.17
2019-01-15T05:40:30.834Z,17.53
2019-01-15T05:43:00.305Z,19.13
2019-01-15T05:45:34.519Z,22.97
2019-01-15T05:48:14.380Z,20.70
2019-01-15T05:50:49.012Z,20.67
2019-01-15T05:53:18.258Z,17.00
2019-01-15T05:55:47.528Z,25.50
2019-01-15T05:58:16.703Z,16.97
2019-01-15T06:00:45.990Z,26.53
2019-01-15T06:03:15.211Z,22.13
2019-01-15T06:05:44.382Z,18.00
2019-01-15T06:08:15.170Z,23.73
2019-01-15T06:10:44.308Z,18.43
2019-01-15T06:13:13.570Z,19.17
2019-01-15T06:15:43.093Z,21.90
2019-01-15T06:18:12.331Z,22.63
2019-01-15T06:20:41.490Z,26.83
2019-01-15T06:23:10.719Z,17.50
2019-01-15T06:25:40.495Z,19.13
2019-01-15T06:28:09.860Z,20.23
2019-01-15T06:30:39.140Z,18.33
2019-01-15T06:33:08.302Z,18.00
2019-01-15T06:35:37.455Z,25.80
2019-01-15T06:38:06.727Z,26.47
2019-01-15T06:40:38.275Z,15.97
2019-01-15T06:43:07.734Z,19.20
2019-01-15T06:45:37.257Z,21.87
2019-01-15T06:48:06.414Z,12.77
2019-01-15T06:50:36.004Z,15.23
2019-01-15T06:53:05.225Z,16.40
2019-01-15T06:55:34.405Z,18.57
2019-01-15T06:58:03.982Z,22.47
2019-01-15T07:00:33.123Z,26.03
2019-01-15T07:03:02.683Z,17.07
2019-01-15T07:05:31.870Z,18.17
2019-01-15T07:08:01.461Z,19.47
2019-01-15T07:10:33.154Z,21.00
2019-01-15T07:13:02.424Z,20.00
2019-01-15T07:15:31.666Z,20.20
2019-01-15T07:18:03.168Z,26.97
2019-01-15T07:20:32.142Z,18.53
2019-01-15T07:23:01.401Z,22.87
2019-01-15T07:25:30.923Z,18.77
2019-01-15T07:28:00.694Z,20.00
2019-01-15T07:30:39.066Z,20.93
2019-01-15T07:33:09.370Z,19.17
2019-01-15T07:35:38.670Z,16.87
2019-01-15T07:38:08.019Z,16.50
2019-01-15T07:40:37.166Z,19.77
2019-01-15T07:43:06.339Z,17.20
2019-01-15T07:45:35.545Z,19.50
2019-01-15T07:48:05.011Z,17.53
2019-01-15T07:50:34.546Z,17.43
2019-01-15T07:53:04.673Z,17.07
2019-01-15T07:55:33.826Z,13.93
2019-01-15T07:58:03.404Z,18.87
2019-01-15T08:00:32.544Z,25.83
2019-01-15T08:03:01.696Z,14.83
2019-01-15T08:05:30.946Z,19.77
2019-01-15T08:08:00.124Z,19.53
2019-01-15T08:10:29.381Z,12.87
2019-01-15T08:12:58.878Z,19.43
2019-01-15T08:15:28.247Z,31.27
2019-01-15T08:17:57.411Z,21.43
2019-01-15T08:20:26.565Z,20.30
2019-01-15T08:22:56.139Z,14.63
2019-01-15T08:25:25.333Z,12.67
2019-01-15T08:27:54.605Z,18.80
2019-01-15T08:30:26.260Z,19.17
2019-01-15T08:32:55.939Z,17.60
2019-01-15T08:35:25.070Z,20.97
2019-01-15T08:37:54.542Z,19.03
2019-01-15T08:40:23.765Z,19.43
2019-01-15T08:42:52.940Z,22.67
2019-01-15T08:45:22.736Z,22.17
2019-01-15T08:47:54.700Z,22.67
2019-01-15T08:50:27.568Z,19.97
2019-01-15T08:52:57.403Z,17.37
2019-01-15T08:55:26.906Z,19.10
2019-01-15T08:57:56.073Z,16.43
2019-01-15T09:00:26.014Z,24.33
2019-01-15T09:02:55.189Z,17.37
2019-01-15T09:05:24.702Z,18.17
2019-01-15T09:07:54.546Z,23.27
2019-01-15T09:10:24.266Z,19.07
2019-01-15T09:12:53.676Z,28.77
2019-01-15T09:15:23.180Z,23.40
2019-01-15T09:17:52.564Z,22.03
2019-01-15T09:20:21.956Z,24.47
2019-01-15T09:22:51.301Z,15.07
2019-01-15T09:25:20.581Z,17.50
2019-01-15T09:27:50.215Z,17.03
2019-01-15T09:30:21.248Z,23.10
2019-01-15T09:32:50.524Z,17.13
2019-01-15T09:35:20.056Z,15.97
2019-01-15T09:37:50.914Z,15.67
2019-01-15T09:40:22.180Z,16.37
2019-01-15T09:42:51.643Z,22.37
2019-01-15T09:45:22.533Z,22.10
2019-01-15T09:48:05.220Z,28.53
2019-01-15T09:50:34.707Z,17.83
2019-01-15T09:53:04.604Z,22.47
2019-01-15T09:55:35.305Z,21.40
2019-01-15T09:58:06.061Z,20.53
2019-01-15T10:00:35.299Z,23.83
2019-01-15T10:03:04.829Z,18.30
2019-01-15T10:05:34.002Z,19.23
2019-01-15T10:08:03.875Z,12.97
2019-01-15T10:10:33.081Z,15.27
2019-01-15T10:13:02.333Z,18.83
2019-01-15T10:15:31.627Z,21.23
2019-01-15T10:18:00.785Z,22.33
2019-01-15T10:20:30.233Z,19.50
2019-01-15T10:22:59.742Z,19.80
2019-01-15T10:25:30.131Z,15.83
2019-01-15T10:27:59.574Z,25.50
2019-01-15T10:30:50.926Z,20.30
2019-01-15T10:33:42.651Z,21.47
2019-01-15T10:36:10.484Z,12.57
2019-01-15T10:38:40.115Z,21.63
2019-01-15T10:41:09.376Z,22.23
2019-01-15T10:43:38.644Z,17.97
2019-01-15T10:46:08.122Z,17.33
2019-01-15T10:48:37.642Z,16.67
2019-01-15T10:51:07.124Z,20.67
2019-01-15T10:53:36.302Z,24.87
2019-01-15T10:56:05.932Z,17.20
2019-01-15T10:58:35.446Z,20.83
2019-01-15T11:01:05.951Z,20.10
2019-01-15T11:03:35.196Z,22.23
2019-01-15T11:06:04.719Z,18.77
2019-01-15T11:08:34.139Z,16.40
2019-01-15T11:11:03.360Z,16.57
2019-01-15T11:13:32.676Z,18.07
2019-01-15T11:16:01.903Z,21.70
2019-01-15T11:18:31.129Z,19.63
2019-01-15T11:21:00.341Z,17.83
2019-01-15T11:23:29.679Z,20.63
2019-01-15T11:25:59.097Z,15.07
2019-01-15T11:28:28.978Z,18.33
2019-01-15T11:30:58.529Z,18.43
2019-01-15T11:33:27.980Z,20.00
2019-01-15T11:35:57.501Z,19.70
2019-01-15T11:38:29.044Z,16.17
2019-01-15T11:40:58.248Z,15.00
2019-01-15T11:43:27.749Z,15.73
2019-01-15T11:45:56.998Z,21.87
2019-01-15T11:48:26.226Z,17.00
2019-01-15T11:50:55.759Z,15.17
2019-01-15T11:53:24.910Z,15.63
2019-01-15T11:55:54.148Z,18.17
2019-01-15T11:58:23.682Z,17.53
2019-01-15T12:01:21.185Z,17.50
2019-01-15T12:04:12.015Z,18.77
2019-01-15T12:07:00.533Z,15.33
2019-01-15T12:10:00.734Z,12.83
2019-01-15T12:12:48.948Z,13.70
2019-01-15T12:15:36.161Z,7.90
2019-01-15T12:18:24.980Z,18.97
2019-01-15T12:21:12.085Z,20.50
2019-01-15T12:23:59.456Z,16.83
2019-01-15T12:26:49.746Z,14.23
2019-01-15T12:29:40.013Z,8.97
2019-01-15T12:32:21.296Z,16.37
2019-01-15T12:35:03.001Z,12.37
2019-01-15T12:38:06.310Z,15.30
2019-01-15T12:40:57.832Z,10.87
2019-01-15T12:43:52.366Z,10.03
2019-01-15T12:46:40.565Z,13.07
2019-01-15T12:49:27.239Z,11.63
2019-01-15T12:52:33.758Z,13.87
2019-01-15T12:55:30.946Z,7.07
2019-01-15T12:58:17.781Z,7.57
2019-01-15T13:01:05.985Z,5.33
2019-01-15T13:03:56.419Z,5.87
2019-01-15T13:06:43.424Z,7.77
2019-01-15T13:09:30.534Z,5.83
2019-01-15T13:12:31.107Z,7.13
2019-01-15T13:15:34.300Z,9.97
2019-01-15T13:18:14.042Z,4.90
2019-01-15T13:21:08.300Z,4.27
2019-01-15T13:24:03.094Z,10.57
2019-01-15T13:26:53.925Z,7.37
2019-01-15T13:29:40.829Z,13.17
2019-01-15T13:32:26.800Z,8.07
2019-01-15T13:35:23.339Z,6.27
2019-01-15T13:38:10.427Z,6.73
2019-01-15T13:40:57.555Z,6.47
2019-01-15T13:43:38.859Z,7.57
2019-01-15T13:46:36.232Z,7.50
2019-01-15T13:49:43.127Z,8.63
2019-01-15T13:52:24.555Z,6.50
2019-01-15T13:55:11.658Z,11.77
2019-01-15T13:58:06.025Z,6.43
2019-01-15T14:00:48.281Z,7.13
2019-01-15T14:03:28.734Z,7.70
2019-01-15T14:06:27.750Z,6.37
2019-01-15T14:09:10.645Z,6.00
2019-01-15T14:11:57.573Z,7.57
2019-01-15T14:14:58.475Z,9.10
2019-01-15T14:17:49.690Z,6.00
2019-01-15T14:20:37.135Z,8.33
2019-01-15T14:23:34.280Z,6.37
2019-01-15T14:26:21.115Z,7.97
2019-01-15T14:29:02.704Z,8.40
2019-01-15T14:31:49.585Z,7.67
2019-01-15T14:34:36.700Z,6.93
2019-01-15T14:37:24.978Z,13.33
2019-01-15T14:40:25.340Z,10.83
2019-01-15T14:43:08.287Z,9.73
2019-01-15T14:46:00.182Z,8.53
2019-01-15T14:48:49.198Z,9.93
2019-01-15T14:51:37.457Z,10.03
2019-01-15T14:54:28.586Z,9.73
2019-01-15T14:57:29.278Z,10.50
2019-01-15T15:00:16.120Z,8.47
2019-01-15T15:03:04.303Z,12.83
2019-01-15T15:05:41.843Z,12.43
2019-01-15T15:08:28.893Z,10.33
2019-01-15T15:11:23.533Z,12.03
2019-01-15T15:14:23.724Z,12.90
2019-01-15T15:17:15.300Z,7.87
2019-01-15T15:20:15.525Z,6.70
2019-01-15T15:23:22.536Z,9.40
2019-01-15T15:25:58.950Z,12.57
2019-01-15T15:28:47.153Z,9.90
2019-01-15T15:31:35.356Z,8.40
2019-01-15T15:34:33.113Z,8.57
2019-01-15T15:37:36.314Z,6.97
2019-01-15T15:40:25.106Z,5.20
2019-01-15T15:43:31.483Z,8.53
2019-01-15T15:46:31.583Z,5.87
2019-01-15T15:49:20.231Z,4.13
2019-01-15T15:52:17.940Z,3.73
2019-01-15T15:55:09.188Z,5.50
2019-01-15T15:57:57.380Z,7.53
2019-01-15T16:00:44.380Z,9.97
2019-01-15T16:03:21.807Z,6.63
2019-01-15T16:06:16.310Z,7.10
2019-01-15T16:08:54.908Z,10.33
2019-01-15T16:11:44.688Z,14.43
2019-01-15T16:14:48.097Z,4.17
2019-01-15T16:17:51.337Z,6.43
2019-01-15T16:20:39.528Z,5.63
2019-01-15T16:23:26.423Z,5.67
2019-01-15T16:26:30.392Z,9.23
2019-01-15T16:29:18.722Z,8.23
2019-01-15T16:32:19.322Z,8.47
2019-01-15T16:35:07.526Z,9.40
2019-01-15T16:37:58.830Z,18.00
2019-01-15T16:40:38.421Z,4.67
2019-01-15T16:43:35.690Z,6.87
2019-01-15T16:46:27.172Z,13.10
2019-01-15T16:49:15.738Z,8.57
2019-01-15T16:52:05.313Z,6.30
2019-01-15T16:54:52.615Z,7.60
2019-01-15T16:57:56.436Z,6.03
2019-01-15T17:00:50.399Z,6.13
2019-01-15T17:03:38.980Z,9.37
2019-01-15T17:06:36.294Z,6.43
2019-01-15T17:09:18.754Z,4.63
2019-01-15T17:12:04.785Z,7.40
2019-01-15T17:15:11.557Z,7.10
2019-01-15T17:17:55.987Z,8.17
2019-01-15T17:20:38.499Z,3.47
2019-01-15T17:23:16.516Z,6.47
2019-01-15T17:26:05.388Z,4.80
2019-01-15T17:28:50.317Z,6.23
2019-01-15T17:31:38.011Z,7.10
2019-01-15T17:34:21.581Z,10.03
2019-01-15T17:37:13.170Z,6.77
2019-01-15T17:40:10.510Z,8.50
2019-01-15T17:42:50.320Z,9.83
2019-01-15T17:45:41.628Z,8.37
2019-01-15T17:48:47.897Z,8.53
2019-01-15T17:51:34.839Z,7.20
2019-01-15T17:54:28.954Z,9.10
2019-01-15T17:57:17.170Z,4.53
2019-01-15T18:00:17.325Z,4.13
2019-01-15T18:03:10.788Z,8.37
2019-01-15T18:06:01.092Z,4.83
2019-01-15T18:08:41.325Z,7.97
2019-01-15T18:11:22.833Z,4.87
2019-01-15T18:14:11.033Z,5.77
2019-01-15T18:17:02.922Z,5.20
2019-01-15T18:19:49.852Z,8.20
2019-01-15T18:22:50.401Z,8.30
2019-01-15T18:25:37.539Z,8.37
2019-01-15T18:28:44.093Z,9.10
2019-01-15T18:31:41.368Z,6.50
2019-01-15T18:34:41.587Z,7.70
2019-01-15T18:37:38.801Z,10.30
2019-01-15T18:40:43.205Z,4.60
2019-01-15T18:43:40.850Z,7.17
2019-01-15T18:46:19.877Z,6.30
2019-01-15T18:49:23.171Z,5.07
2019-01-15T18:52:10.343Z,8.20
2019-01-15T18:54:58.925Z,9.03
2019-01-15T18:57:50.123Z,9.37
2019-01-15T19:00:46.511Z,9.93
2019-01-15T19:03:36.770Z,8.67
2019-01-15T19:06:30.985Z,9.57
2019-01-15T19:09:18.264Z,10.40
2019-01-15T19:12:09.502Z,8.60
2019-01-15T19:15:03.972Z,10.80
2019-01-15T19:17:51.371Z,11.87
2019-01-15T19:20:29.611Z,14.53
2019-01-15T19:23:17.320Z,13.97
2019-01-15T19:26:11.135Z,14.97
2019-01-15T19:29:00.991Z,14.87
2019-01-15T19:31:57.926Z,15.03
2019-01-15T19:34:45.865Z,13.87
2019-01-15T19:37:36.799Z,13.13
2019-01-15T19:40:28.922Z,17.27
2019-01-15T19:43:22.699Z,17.47
2019-01-15T19:46:04.797Z,16.70
2019-01-15T19:48:53.002Z,19.20
2019-01-15T19:51:47.554Z,19.40
2019-01-15T19:54:34.598Z,20.20
2019-01-15T19:57:32.182Z,21.97
2019-01-15T20:00:18.491Z,25.40
2019-01-15T20:03:14.105Z,26.43
2019-01-15T20:06:01.327Z,24.03
2019-01-15T20:08:52.629Z,25.70
2019-01-15T20:11:46.077Z,26.00
2019-01-15T20:14:28.936Z,24.20
2019-01-15T20:17:18.484Z,27.60
2019-01-15T20:20:07.106Z,33.17
2019-01-15T20:23:11.040Z,28.07
2019-01-15T20:26:02.043Z,24.97
2019-01-15T20:28:53.262Z,24.23
2019-01-15T20:31:38.160Z,23.37
2019-01-15T20:34:25.153Z,27.33
2019-01-15T20:37:16.991Z,23.40
2019-01-15T20:40:09.111Z,22.23
2019-01-15T20:42:55.989Z,24.03
2019-01-15T20:45:41.199Z,26.17
2019-01-15T20:48:28.544Z,25.53
2019-01-15T20:51:35.153Z,24.50
2019-01-15T20:54:24.090Z,26.67
2019-01-15T20:57:21.390Z,27.03
2019-01-15T21:00:16.505Z,25.57
2019-01-15T21:03:13.866Z,20.47
2019-01-15T21:06:01.910Z,20.27
2019-01-15T21:08:49.160Z,19.73
2019-01-15T21:11:55.606Z,18.93
2019-01-15T21:14:44.312Z,17.67
2019-01-15T21:17:33.149Z,17.93
2019-01-15T21:20:25.457Z,19.40
2019-01-15T21:23:13.016Z,17.27
2019-01-15T21:26:05.668Z,24.13
2019-01-15T21:28:57.094Z,21.60
2019-01-15T21:31:58.013Z,22.37
2019-01-15T21:34:45.287Z,25.73
2019-01-15T21:37:32.137Z,26.53
2019-01-15T21:40:21.173Z,26.37
2019-01-15T21:43:11.803Z,27.40
2019-01-15T21:46:07.353Z,25.90
2019-01-15T21:48:50.516Z,27.43
2019-01-15T21:51:45.088Z,24.57
2019-01-15T21:54:32.174Z,25.07
2019-01-15T21:57:15.543Z,24.03
2019-01-15T22:00:19.123Z,24.00
2019-01-15T22:03:14.655Z,26.93
2019-01-15T22:06:11.897Z,23.97
2019-01-15T22:08:56.353Z,25.73
2019-01-15T22:11:50.653Z,21.27
2019-01-15T22:14:36.553Z,24.90
2019-01-15T22:17:24.843Z,21.80
2019-01-15T22:20:20.129Z,22.93
2019-01-15T22:23:17.161Z,21.63
2019-01-15T22:26:04.054Z,20.07
2019-01-15T22:29:03.546Z,20.47
2019-01-15T22:31:51.751Z,17.70
2019-01-15T22:34:45.999Z,19.60
2019-01-15T22:37:37.078Z,17.93
2019-01-15T22:40:21.739Z,21.07
2019-01-15T22:43:09.946Z,21.90
2019-01-15T22:46:04.259Z,22.97
2019-01-15T22:49:10.971Z,23.60
2019-01-15T22:51:59.198Z,19.70
2019-01-15T22:54:50.522Z,27.40
2019-01-15T22:57:53.846Z,26.70
2019-01-15T23:00:49.912Z,27.53
2019-01-15T23:03:38.407Z,28.60
2019-01-15T23:06:35.937Z,23.00
2019-01-15T23:09:26.771Z,29.83
2019-01-15T23:12:19.006Z,25.03
2019-01-15T23:15:07.617Z,28.13
2019-01-15T23:18:02.457Z,25.07
2019-01-15T23:21:02.499Z,24.83
2019-01-15T23:23:59.862Z,26.57
2019-01-15T23:26:46.727Z,26.37
2019-01-15T23:29:33.522Z,26.77
2019-01-15T23:32:10.196Z,27.03
2019-01-15T23:34:50.048Z,30.73
2019-01-15T23:37:35.838Z,25.30
2019-01-15T23:40:23.866Z,29.03
2019-01-15T23:43:27.567Z,28.87
2019-01-15T23:46:33.921Z,34.73
2019-01-15T23:49:31.070Z,34.50
2019-01-15T23:52:25.666Z,27.77
2019-01-15T23:55:12.957Z,31.60
2019-01-15T23:58:01.538Z,36.63
